sensor_id;sensor_type;location;lat;lon;timestamp;P1;durP1;ratioP1;P2;durP2;ratioP2
35562;SDS011;21665;40.108;18.302;2023-06-26T06:47:03;19.50;;;18.10;;
35562;SDS011;21665;40.108;18.302;2023-06-26T06:49:29;20.65;;;18.80;;
35562;SDS011;21665;40.108;18.302;2023-06-26T06:51:56;19.88;;;18.50;;
35562;SDS011;21665;40.108;18.302;2023-06-26T06:54:25;20.48;;;18.83;;
35562;SDS011;21665;40.108;18.302;2023-06-26T06:56:54;21.27;;;19.67;;
35562;SDS011;21665;40.108;18.302;2023-06-26T06:59:20;20.40;;;19.02;;
35562;SDS011;21665;40.108;18.302;2023-06-26T07:01:46;21.60;;;19.90;;
35562;SDS011;21665;40.108;18.302;2023-06-26T07:04:13;20.10;;;18.73;;
35562;SDS011;21665;40.108;18.302;2023-06-26T09:30:25;23.17;;;20.73;;
35562;SDS011;21665;40.108;18.302;2023-06-26T09:49:59;22.60;;;20.75;;
35562;SDS011;21665;40.108;18.302;2023-06-26T10:29:02;20.60;;;18.90;;
35562;SDS011;21665;40.108;18.302;2023-06-26T10:32:22;21.05;;;19.20;;
35562;SDS011;21665;40.108;18.302;2023-06-26T10:35:18;21.35;;;19.40;;
35562;SDS011;21665;40.108;18.302;2023-06-26T10:41:50;21.55;;;19.88;;
35562;SDS011;21665;40.108;18.302;2023-06-26T10:44:44;22.48;;;20.52;;
35562;SDS011;21665;40.108;18.302;2023-06-26T10:47:31;21.65;;;20.08;;
35562;SDS011;21665;40.108;18.302;2023-06-26T10:50:25;21.85;;;19.88;;
35562;SDS011;21665;40.108;18.302;2023-06-26T10:56:03;22.60;;;20.65;;
35562;SDS011;21665;40.108;18.302;2023-06-26T10:58:41;23.27;;;20.92;;
35562;SDS011;21665;40.108;18.302;2023-06-26T11:01:22;21.95;;;20.20;;
35562;SDS011;21665;40.108;18.302;2023-06-26T11:06:44;22.60;;;20.75;;
35562;SDS011;21665;40.108;18.302;2023-06-26T11:09:24;22.30;;;20.67;;
35562;SDS011;21665;40.108;18.302;2023-06-26T11:12:42;21.95;;;20.35;;
35562;SDS011;21665;40.108;18.302;2023-06-26T11:15:53;22.10;;;20.50;;
35562;SDS011;21665;40.108;18.302;2023-06-26T11:18:22;22.05;;;20.55;;
35562;SDS011;21665;40.108;18.302;2023-06-26T11:20:49;21.85;;;20.35;;
35562;SDS011;21665;40.108;18.302;2023-06-26T11:23:16;21.52;;;19.88;;
35562;SDS011;21665;40.108;18.302;2023-06-26T11:28:16;22.25;;;20.60;;
35562;SDS011;21665;40.108;18.302;2023-06-26T11:30:46;22.50;;;20.42;;
35562;SDS011;21665;40.108;18.302;2023-06-26T11:33:12;22.48;;;20.35;;
35562;SDS011;21665;40.108;18.302;2023-06-26T11:35:39;22.75;;;20.65;;
35562;SDS011;21665;40.108;18.302;2023-06-26T11:40:50;21.70;;;20.10;;
35562;SDS011;21665;40.108;18.302;2023-06-26T11:44:06;22.60;;;20.48;;
35562;SDS011;21665;40.108;18.302;2023-06-26T11:46:35;22.17;;;20.48;;
35562;SDS011;21665;40.108;18.302;2023-06-26T11:49:54;23.20;;;21.50;;
35562;SDS011;21665;40.108;18.302;2023-06-26T11:52:21;23.30;;;21.48;;
35562;SDS011;21665;40.108;18.302;2023-06-26T11:54:56;23.13;;;21.27;;
35562;SDS011;21665;40.108;18.302;2023-06-26T11:57:34;23.05;;;21.05;;
35562;SDS011;21665;40.108;18.302;2023-06-26T12:00:14;25.58;;;21.50;;
35562;SDS011;21665;40.108;18.302;2023-06-26T12:02:47;23.15;;;21.08;;
35562;SDS011;21665;40.108;18.302;2023-06-26T12:29:20;25.80;;;23.40;;
35562;SDS011;21665;40.108;18.302;2023-06-26T12:43:34;25.05;;;23.15;;
35562;SDS011;21665;40.108;18.302;2023-06-26T12:46:05;24.42;;;22.70;;
35562;SDS011;21665;40.108;18.302;2023-06-26T12:48:50;24.92;;;22.88;;
35562;SDS011;21665;40.108;18.302;2023-06-26T12:51:22;25.80;;;23.70;;
35562;SDS011;21665;40.108;18.302;2023-06-26T12:53:52;24.95;;;22.92;;
35562;SDS011;21665;40.108;18.302;2023-06-26T12:56:19;24.60;;;22.80;;
35562;SDS011;21665;40.108;18.302;2023-06-26T12:58:45;25.08;;;23.27;;
35562;SDS011;21665;40.108;18.302;2023-06-26T13:01:12;24.83;;;23.00;;
35562;SDS011;21665;40.108;18.302;2023-06-26T13:03:45;24.35;;;22.65;;
35562;SDS011;21665;40.108;18.302;2023-06-26T13:06:13;24.60;;;22.77;;
35562;SDS011;21665;40.108;18.302;2023-06-26T13:08:40;24.42;;;22.77;;
35562;SDS011;21665;40.108;18.302;2023-06-26T13:11:09;23.85;;;22.13;;
35562;SDS011;21665;40.108;18.302;2023-06-26T13:13:48;24.15;;;22.50;;
35562;SDS011;21665;40.108;18.302;2023-06-26T13:16:24;23.77;;;22.17;;
35562;SDS011;21665;40.108;18.302;2023-06-26T13:18:57;23.67;;;22.08;;
35562;SDS011;21665;40.108;18.302;2023-06-26T13:21:34;24.13;;;22.30;;
35562;SDS011;21665;40.108;18.302;2023-06-26T13:24:10;24.33;;;22.52;;
35562;SDS011;21665;40.108;18.302;2023-06-26T14:48:38;22.27;;;20.63;;
35562;SDS011;21665;40.108;18.302;2023-06-26T14:51:04;23.38;;;21.58;;
35562;SDS011;21665;40.108;18.302;2023-06-26T14:53:31;22.55;;;20.65;;
35562;SDS011;21665;40.108;18.302;2023-06-26T14:55:57;21.92;;;20.48;;
35562;SDS011;21665;40.108;18.302;2023-06-26T14:58:24;22.95;;;21.27;;
35562;SDS011;21665;40.108;18.302;2023-06-26T15:00:50;23.65;;;21.80;;
35562;SDS011;21665;40.108;18.302;2023-06-26T15:03:17;22.65;;;21.17;;
35562;SDS011;21665;40.108;18.302;2023-06-26T15:05:43;22.67;;;21.20;;
35562;SDS011;21665;40.108;18.302;2023-06-26T15:08:10;22.42;;;21.05;;
35562;SDS011;21665;40.108;18.302;2023-06-26T15:10:36;22.02;;;20.60;;
35562;SDS011;21665;40.108;18.302;2023-06-26T15:13:03;22.83;;;21.23;;
35562;SDS011;21665;40.108;18.302;2023-06-26T15:15:30;24.02;;;22.08;;
35562;SDS011;21665;40.108;18.302;2023-06-26T15:17:57;23.67;;;22.05;;
35562;SDS011;21665;40.108;18.302;2023-06-26T15:20:25;23.52;;;21.83;;
35562;SDS011;21665;40.108;18.302;2023-06-26T15:22:51;22.25;;;20.92;;
35562;SDS011;21665;40.108;18.302;2023-06-26T15:25:18;23.13;;;21.30;;
35562;SDS011;21665;40.108;18.302;2023-06-26T15:27:45;22.02;;;20.52;;
35562;SDS011;21665;40.108;18.302;2023-06-26T15:30:12;22.73;;;21.13;;
35562;SDS011;21665;40.108;18.302;2023-06-26T15:32:40;23.08;;;21.40;;
35562;SDS011;21665;40.108;18.302;2023-06-26T15:35:07;23.10;;;21.42;;
35562;SDS011;21665;40.108;18.302;2023-06-26T15:37:37;23.40;;;21.25;;
35562;SDS011;21665;40.108;18.302;2023-06-26T15:40:05;22.80;;;21.10;;
35562;SDS011;21665;40.108;18.302;2023-06-26T15:42:32;22.33;;;20.73;;
35562;SDS011;21665;40.108;18.302;2023-06-26T15:44:58;22.45;;;21.13;;
35562;SDS011;21665;40.108;18.302;2023-06-26T15:47:25;21.67;;;20.33;;
35562;SDS011;21665;40.108;18.302;2023-06-26T15:49:51;22.13;;;20.83;;
35562;SDS011;21665;40.108;18.302;2023-06-26T15:52:18;22.98;;;21.40;;
35562;SDS011;21665;40.108;18.302;2023-06-26T15:54:44;24.27;;;21.25;;
35562;SDS011;21665;40.108;18.302;2023-06-26T15:57:11;23.25;;;21.23;;
35562;SDS011;21665;40.108;18.302;2023-06-26T15:59:37;21.73;;;20.50;;
35562;SDS011;21665;40.108;18.302;2023-06-26T16:02:04;24.00;;;22.27;;
35562;SDS011;21665;40.108;18.302;2023-06-26T16:04:31;22.02;;;20.70;;
35562;SDS011;21665;40.108;18.302;2023-06-26T16:06:58;22.10;;;20.83;;
35562;SDS011;21665;40.108;18.302;2023-06-26T16:09:24;21.75;;;20.40;;
35562;SDS011;21665;40.108;18.302;2023-06-26T16:11:51;22.02;;;20.52;;
35562;SDS011;21665;40.108;18.302;2023-06-26T16:14:18;21.92;;;20.48;;
35562;SDS011;21665;40.108;18.302;2023-06-26T16:16:44;22.83;;;21.30;;
35562;SDS011;21665;40.108;18.302;2023-06-26T16:19:11;22.15;;;20.55;;
35562;SDS011;21665;40.108;18.302;2023-06-26T16:21:41;21.25;;;19.77;;
35562;SDS011;21665;40.108;18.302;2023-06-26T16:24:07;22.45;;;20.42;;
35562;SDS011;21665;40.108;18.302;2023-06-26T16:26:34;21.60;;;20.25;;
35562;SDS011;21665;40.108;18.302;2023-06-26T16:29:00;22.25;;;20.48;;
35562;SDS011;21665;40.108;18.302;2023-06-26T16:31:27;21.33;;;19.83;;
35562;SDS011;21665;40.108;18.302;2023-06-26T16:33:54;21.58;;;20.17;;
35562;SDS011;21665;40.108;18.302;2023-06-26T16:36:20;21.80;;;20.30;;
35562;SDS011;21665;40.108;18.302;2023-06-26T16:38:47;22.02;;;20.33;;
35562;SDS011;21665;40.108;18.302;2023-06-26T16:41:13;21.67;;;20.20;;
35562;SDS011;21665;40.108;18.302;2023-06-26T16:43:43;21.80;;;20.35;;
35562;SDS011;21665;40.108;18.302;2023-06-26T16:46:13;21.80;;;20.08;;
35562;SDS011;21665;40.108;18.302;2023-06-26T16:49:00;21.75;;;20.42;;
35562;SDS011;21665;40.108;18.302;2023-06-26T16:51:26;21.10;;;19.90;;
35562;SDS011;21665;40.108;18.302;2023-06-26T16:53:53;21.42;;;19.70;;
35562;SDS011;21665;40.108;18.302;2023-06-26T16:56:20;21.67;;;19.88;;
35562;SDS011;21665;40.108;18.302;2023-06-26T16:58:46;21.45;;;19.73;;
35562;SDS011;21665;40.108;18.302;2023-06-26T17:01:13;20.85;;;19.55;;
35562;SDS011;21665;40.108;18.302;2023-06-26T17:03:39;21.52;;;19.90;;
35562;SDS011;21665;40.108;18.302;2023-06-26T17:06:06;22.17;;;20.25;;
35562;SDS011;21665;40.108;18.302;2023-06-26T17:08:35;21.40;;;19.80;;
35562;SDS011;21665;40.108;18.302;2023-06-26T17:11:02;21.45;;;19.88;;
35562;SDS011;21665;40.108;18.302;2023-06-26T17:13:30;21.85;;;20.25;;
35562;SDS011;21665;40.108;18.302;2023-06-26T17:15:57;22.42;;;20.30;;
35562;SDS011;21665;40.108;18.302;2023-06-26T17:18:24;21.75;;;20.23;;
35562;SDS011;21665;40.108;18.302;2023-06-26T17:20:50;21.15;;;19.85;;
35562;SDS011;21665;40.108;18.302;2023-06-26T17:23:17;21.50;;;20.15;;
35562;SDS011;21665;40.108;18.302;2023-06-26T17:25:44;22.48;;;20.88;;
35562;SDS011;21665;40.108;18.302;2023-06-26T17:28:10;21.98;;;20.08;;
35562;SDS011;21665;40.108;18.302;2023-06-26T17:30:37;21.45;;;20.00;;
35562;SDS011;21665;40.108;18.302;2023-06-26T17:33:05;21.27;;;19.88;;
35562;SDS011;21665;40.108;18.302;2023-06-26T17:35:31;21.42;;;19.75;;
35562;SDS011;21665;40.108;18.302;2023-06-26T17:38:02;21.10;;;19.70;;
35562;SDS011;21665;40.108;18.302;2023-06-26T17:40:30;21.58;;;20.00;;
35562;SDS011;21665;40.108;18.302;2023-06-26T17:43:28;20.67;;;19.17;;
35562;SDS011;21665;40.108;18.302;2023-06-26T17:45:55;20.20;;;18.77;;
35562;SDS011;21665;40.108;18.302;2023-06-26T17:48:21;21.00;;;19.25;;
35562;SDS011;21665;40.108;18.302;2023-06-26T17:50:48;20.40;;;18.80;;
35562;SDS011;21665;40.108;18.302;2023-06-26T17:53:15;21.02;;;19.35;;
35562;SDS011;21665;40.108;18.302;2023-06-26T17:55:43;21.05;;;19.33;;
35562;SDS011;21665;40.108;18.302;2023-06-26T17:58:09;20.13;;;18.58;;
35562;SDS011;21665;40.108;18.302;2023-06-26T18:00:36;20.30;;;18.73;;
35562;SDS011;21665;40.108;18.302;2023-06-26T18:03:05;20.25;;;18.75;;
35562;SDS011;21665;40.108;18.302;2023-06-26T18:05:31;22.00;;;20.10;;
35562;SDS011;21665;40.108;18.302;2023-06-26T18:08:20;20.10;;;18.50;;
35562;SDS011;21665;40.108;18.302;2023-06-26T18:10:47;20.35;;;18.80;;
35562;SDS011;21665;40.108;18.302;2023-06-26T18:13:13;20.10;;;18.42;;
35562;SDS011;21665;40.108;18.302;2023-06-26T18:15:40;19.85;;;18.40;;
35562;SDS011;21665;40.108;18.302;2023-06-26T18:18:07;19.23;;;17.90;;
35562;SDS011;21665;40.108;18.302;2023-06-26T18:20:33;20.20;;;18.27;;
35562;SDS011;21665;40.108;18.302;2023-06-26T18:23:00;19.55;;;18.15;;
35562;SDS011;21665;40.108;18.302;2023-06-26T18:25:30;19.95;;;18.27;;
35562;SDS011;21665;40.108;18.302;2023-06-26T18:27:56;20.23;;;18.85;;
35562;SDS011;21665;40.108;18.302;2023-06-26T18:30:23;20.80;;;19.13;;
35562;SDS011;21665;40.108;18.302;2023-06-26T18:32:49;19.40;;;17.90;;
35562;SDS011;21665;40.108;18.302;2023-06-26T18:35:16;18.90;;;17.60;;
35562;SDS011;21665;40.108;18.302;2023-06-26T18:37:42;18.48;;;17.15;;
35562;SDS011;21665;40.108;18.302;2023-06-26T18:40:12;19.23;;;17.80;;
35562;SDS011;21665;40.108;18.302;2023-06-26T18:42:41;19.33;;;17.70;;
35562;SDS011;21665;40.108;18.302;2023-06-26T18:45:08;19.30;;;17.83;;
35562;SDS011;21665;40.108;18.302;2023-06-26T18:47:44;19.35;;;17.95;;
35562;SDS011;21665;40.108;18.302;2023-06-26T18:53:41;19.15;;;17.52;;
35562;SDS011;21665;40.108;18.302;2023-06-26T18:56:10;18.75;;;17.30;;
35562;SDS011;21665;40.108;18.302;2023-06-26T18:58:41;19.80;;;18.20;;
35562;SDS011;21665;40.108;18.302;2023-06-26T19:07:43;21.38;;;19.80;;
35562;SDS011;21665;40.108;18.302;2023-06-26T19:10:41;22.65;;;20.33;;
35562;SDS011;21665;40.108;18.302;2023-06-26T19:17:13;27.27;;;20.92;;
35562;SDS011;21665;40.108;18.302;2023-06-26T19:26:08;21.48;;;19.70;;
35562;SDS011;21665;40.108;18.302;2023-06-26T19:31:59;23.75;;;21.27;;
35562;SDS011;21665;40.108;18.302;2023-06-26T19:37:59;22.33;;;20.23;;
35562;SDS011;21665;40.108;18.302;2023-06-26T19:40:40;27.63;;;21.17;;
35562;SDS011;21665;40.108;18.302;2023-06-26T19:43:15;22.73;;;20.42;;
35562;SDS011;21665;40.108;18.302;2023-06-26T19:45:44;24.48;;;21.98;;
35562;SDS011;21665;40.108;18.302;2023-06-26T20:32:24;17.33;;;15.50;;
35562;SDS011;21665;40.108;18.302;2023-06-26T20:37:59;16.98;;;15.27;;
35562;SDS011;21665;40.108;18.302;2023-06-26T20:40:28;17.90;;;14.23;;
35562;SDS011;21665;40.108;18.302;2023-06-26T20:57:21;12.63;;;11.32;;
35562;SDS011;21665;40.108;18.302;2023-06-26T22:39:31;13.73;;;12.43;;
35562;SDS011;21665;40.108;18.302;2023-06-26T22:42:00;19.50;;;13.63;;
35562;SDS011;21665;40.108;18.302;2023-06-26T22:44:29;15.23;;;12.70;;
35562;SDS011;21665;40.108;18.302;2023-06-26T22:46:56;13.02;;;11.80;;
35562;SDS011;21665;40.108;18.302;2023-06-26T22:49:23;13.75;;;12.38;;
35562;SDS011;21665;40.108;18.302;2023-06-26T22:52:05;13.68;;;12.35;;
35562;SDS011;21665;40.108;18.302;2023-06-26T22:54:56;16.10;;;12.15;;
35562;SDS011;21665;40.108;18.302;2023-06-26T22:58:12;15.48;;;12.93;;
35562;SDS011;21665;40.108;18.302;2023-06-26T23:03:42;13.10;;;12.00;;
35562;SDS011;21665;40.108;18.302;2023-06-26T23:06:59;14.00;;;12.10;;
35562;SDS011;21665;40.108;18.302;2023-06-26T23:13:12;13.80;;;12.50;;
35562;SDS011;21665;40.108;18.302;2023-06-26T23:16:02;13.82;;;12.43;;
35562;SDS011;21665;40.108;18.302;2023-06-26T23:18:58;18.45;;;12.68;;
35562;SDS011;21665;40.108;18.302;2023-06-26T23:21:51;16.08;;;12.13;;
35562;SDS011;21665;40.108;18.302;2023-06-26T23:25:31;12.93;;;11.63;;
35562;SDS011;21665;40.108;18.302;2023-06-26T23:31:14;14.82;;;11.52;;
35562;SDS011;21665;40.108;18.302;2023-06-26T23:34:02;12.18;;;11.05;;
35562;SDS011;21665;40.108;18.302;2023-06-26T23:36:43;14.43;;;10.98;;
35562;SDS011;21665;40.108;18.302;2023-06-26T23:39:30;10.80;;;9.85;;
35562;SDS011;21665;40.108;18.302;2023-06-26T23:42:28;11.07;;;10.00;;
35562;SDS011;21665;40.108;18.302;2023-06-26T23:48:27;11.38;;;10.27;;
35562;SDS011;21665;40.108;18.302;2023-06-26T23:51:26;11.65;;;10.35;;
35562;SDS011;21665;40.108;18.302;2023-06-26T23:54:23;11.77;;;10.10;;
35562;SDS011;21665;40.108;18.302;2023-06-26T23:57:19;11.77;;;10.57;;
